sensor_id;sensor_type;location;lat;lon;timestamp;pressure;altitude;pressure_sealevel;temperature;humidity
42847;BME280;75159;49.916;14.536;2024-03-22T00:06:47;97429.50;;;9.28;62.04
42847;BME280;75159;49.916;14.536;2024-03-22T00:17:07;97422.28;;;9.32;61.53
42847;BME280;75159;49.916;14.536;2024-03-22T00:27:27;97420.25;;;9.12;61.24
42847;BME280;75159;49.916;14.536;2024-03-22T00:37:47;97410.56;;;9.14;61.61
42847;BME280;75159;49.916;14.536;2024-03-22T00:48:08;97403.56;;;9.04;61.67
42847;BME280;75159;49.916;14.536;2024-03-22T00:58:28;97393.59;;;8.97;61.84
42847;BME280;75159;49.916;14.536;2024-03-22T01:08:48;97387.44;;;8.98;62.10
42847;BME280;75159;49.916;14.536;2024-03-22T01:19:08;97373.50;;;8.99;62.23
42847;BME280;75159;49.916;14.536;2024-03-22T01:29:28;97372.22;;;9.17;62.11
42847;BME280;75159;49.916;14.536;2024-03-22T01:39:50;97378.56;;;9.01;61.93
42847;BME280;75159;49.916;14.536;2024-03-22T01:50:10;97371.41;;;9.16;62.62
42847;BME280;75159;49.916;14.536;2024-03-22T02:00:31;97365.25;;;9.28;62.42
42847;BME280;75159;49.916;14.536;2024-03-22T02:10:51;97356.63;;;9.39;62.22
42847;BME280;75159;49.916;14.536;2024-03-22T02:21:12;97340.41;;;9.13;62.62
42847;BME280;75159;49.916;14.536;2024-03-22T02:31:32;97322.44;;;9.21;62.35
42847;BME280;75159;49.916;14.536;2024-03-22T02:41:52;97305.63;;;9.14;62.60
42847;BME280;75159;49.916;14.536;2024-03-22T02:52:12;97284.94;;;9.12;62.91
42847;BME280;75159;49.916;14.536;2024-03-22T03:02:32;97264.94;;;9.24;62.91
42847;BME280;75159;49.916;14.536;2024-03-22T03:12:54;97264.59;;;9.29;62.90
42847;BME280;75159;49.916;14.536;2024-03-22T03:23:14;97259.50;;;9.27;62.73
42847;BME280;75159;49.916;14.536;2024-03-22T03:33:34;97245.44;;;9.30;62.75
42847;BME280;75159;49.916;14.536;2024-03-22T03:43:54;97227.44;;;9.15;62.76
42847;BME280;75159;49.916;14.536;2024-03-22T03:54:14;97230.75;;;9.18;62.72
42847;BME280;75159;49.916;14.536;2024-03-22T04:04:34;97220.84;;;9.11;62.93
42847;BME280;75159;49.916;14.536;2024-03-22T04:14:54;97234.22;;;9.07;62.74
42847;BME280;75159;49.916;14.536;2024-03-22T04:25:14;97235.84;;;8.85;62.79
42847;BME280;75159;49.916;14.536;2024-03-22T04:35:34;97229.72;;;8.75;62.95
42847;BME280;75159;49.916;14.536;2024-03-22T04:45:54;97229.94;;;8.60;63.14
42847;BME280;75159;49.916;14.536;2024-03-22T04:56:14;97240.53;;;8.46;63.26
42847;BME280;75159;49.916;14.536;2024-03-22T05:06:34;97235.09;;;8.49;63.33
42847;BME280;75159;49.916;14.536;2024-03-22T05:17:06;97226.25;;;8.51;62.99
42847;BME280;75159;49.916;14.536;2024-03-22T05:27:26;97222.00;;;8.50;63.05
42847;BME280;75159;49.916;14.536;2024-03-22T05:37:46;97221.38;;;8.47;63.40
42847;BME280;75159;49.916;14.536;2024-03-22T05:48:06;97230.44;;;8.77;63.33
42847;BME280;75159;49.916;14.536;2024-03-22T05:58:25;97220.00;;;8.65;62.76
42847;BME280;75159;49.916;14.536;2024-03-22T06:08:45;97222.50;;;8.67;63.13
42847;BME280;75159;49.916;14.536;2024-03-22T06:19:05;97220.84;;;8.66;63.01
42847;BME280;75159;49.916;14.536;2024-03-22T06:29:25;97227.69;;;8.67;63.05
42847;BME280;75159;49.916;14.536;2024-03-22T06:39:45;97222.72;;;8.75;62.90
42847;BME280;75159;49.916;14.536;2024-03-22T06:50:05;97203.72;;;9.85;62.98
42847;BME280;75159;49.916;14.536;2024-03-22T07:00:25;97193.97;;;9.66;62.43
42847;BME280;75159;49.916;14.536;2024-03-22T07:10:45;97198.13;;;9.57;62.42
42847;BME280;75159;49.916;14.536;2024-03-22T07:21:05;97187.50;;;9.82;62.13
42847;BME280;75159;49.916;14.536;2024-03-22T07:31:25;97181.72;;;9.78;62.42
42847;BME280;75159;49.916;14.536;2024-03-22T07:41:45;97177.19;;;10.13;62.20
42847;BME280;75159;49.916;14.536;2024-03-22T07:52:05;97163.97;;;10.26;61.97
42847;BME280;75159;49.916;14.536;2024-03-22T08:02:25;97157.50;;;10.41;62.03
42847;BME280;75159;49.916;14.536;2024-03-22T08:12:45;97151.53;;;10.60;61.58
42847;BME280;75159;49.916;14.536;2024-03-22T08:23:05;97135.66;;;10.83;61.67
42847;BME280;75159;49.916;14.536;2024-03-22T08:33:25;97126.53;;;11.08;61.60
42847;BME280;75159;49.916;14.536;2024-03-22T08:43:45;97119.81;;;12.04;60.65
42847;BME280;75159;49.916;14.536;2024-03-22T08:54:05;97129.06;;;11.98;60.18
42847;BME280;75159;49.916;14.536;2024-03-22T09:04:25;97117.19;;;12.14;60.48
42847;BME280;75159;49.916;14.536;2024-03-22T09:14:45;97113.78;;;11.94;59.57
42847;BME280;75159;49.916;14.536;2024-03-22T09:25:06;97079.94;;;12.77;61.62
42847;BME280;75159;49.916;14.536;2024-03-22T09:35:26;97060.88;;;12.85;59.93
42847;BME280;75159;49.916;14.536;2024-03-22T09:45:50;97063.06;;;13.62;59.41
42847;BME280;75159;49.916;14.536;2024-03-22T09:56:12;97052.66;;;13.34;57.96
42847;BME280;75159;49.916;14.536;2024-03-22T10:06:34;97052.34;;;13.19;57.50
42847;BME280;75159;49.916;14.536;2024-03-22T10:16:54;97037.47;;;13.20;57.47
42847;BME280;75159;49.916;14.536;2024-03-22T10:27:14;97031.72;;;13.34;57.12
42847;BME280;75159;49.916;14.536;2024-03-22T10:37:34;97030.81;;;13.25;56.47
42847;BME280;75159;49.916;14.536;2024-03-22T11:00:33;97008.66;;;13.20;55.57
42847;BME280;75159;49.916;14.536;2024-03-22T11:10:54;96992.06;;;13.11;55.03
42847;BME280;75159;49.916;14.536;2024-03-22T11:21:15;96978.06;;;13.20;55.19
42847;BME280;75159;49.916;14.536;2024-03-22T11:31:37;96963.53;;;13.26;54.70
42847;BME280;75159;49.916;14.536;2024-03-22T11:41:56;96959.50;;;13.14;54.67
42847;BME280;75159;49.916;14.536;2024-03-22T11:52:17;96948.75;;;13.17;54.86
42847;BME280;75159;49.916;14.536;2024-03-22T12:02:37;96933.06;;;13.25;54.56
42847;BME280;75159;49.916;14.536;2024-03-22T12:12:56;96896.84;;;13.65;54.53
42847;BME280;75159;49.916;14.536;2024-03-22T12:23:17;96890.03;;;13.80;53.74
42847;BME280;75159;49.916;14.536;2024-03-22T12:33:37;96868.16;;;13.63;53.14
42847;BME280;75159;49.916;14.536;2024-03-22T12:44:09;96855.63;;;13.75;53.19
42847;BME280;75159;49.916;14.536;2024-03-22T12:54:29;96839.06;;;13.75;52.66
42847;BME280;75159;49.916;14.536;2024-03-22T13:04:49;96826.44;;;13.78;52.17
42847;BME280;75159;49.916;14.536;2024-03-22T13:15:10;96806.31;;;13.87;51.89
42847;BME280;75159;49.916;14.536;2024-03-22T13:25:31;96793.25;;;13.95;51.34
42847;BME280;75159;49.916;14.536;2024-03-22T13:35:52;96784.72;;;14.01;51.02
42847;BME280;75159;49.916;14.536;2024-03-22T13:46:12;96769.81;;;14.02;50.66
42847;BME280;75159;49.916;14.536;2024-03-22T13:56:37;96750.81;;;14.00;50.51
42847;BME280;75159;49.916;14.536;2024-03-22T14:06:57;96736.38;;;13.96;50.04
42847;BME280;75159;49.916;14.536;2024-03-22T14:17:17;96732.13;;;14.03;49.95
42847;BME280;75159;49.916;14.536;2024-03-22T14:27:38;96723.63;;;14.01;49.68
42847;BME280;75159;49.916;14.536;2024-03-22T14:37:58;96707.72;;;14.02;49.68
42847;BME280;75159;49.916;14.536;2024-03-22T14:48:19;96697.72;;;13.90;48.90
42847;BME280;75159;49.916;14.536;2024-03-22T14:58:40;96693.75;;;13.77;48.77
42847;BME280;75159;49.916;14.536;2024-03-22T15:09:00;96675.09;;;13.80;48.62
42847;BME280;75159;49.916;14.536;2024-03-22T15:19:24;96669.19;;;13.78;48.75
42847;BME280;75159;49.916;14.536;2024-03-22T15:29:45;96652.50;;;13.71;48.88
42847;BME280;75159;49.916;14.536;2024-03-22T15:40:06;96644.94;;;13.60;48.89
42847;BME280;75159;49.916;14.536;2024-03-22T15:50:27;96646.91;;;13.57;48.97
42847;BME280;75159;49.916;14.536;2024-03-22T16:00:47;96639.69;;;13.43;49.00
42847;BME280;75159;49.916;14.536;2024-03-22T16:11:07;96639.84;;;13.41;49.29
42847;BME280;75159;49.916;14.536;2024-03-22T16:21:27;96631.00;;;13.43;49.35
42847;BME280;75159;49.916;14.536;2024-03-22T16:31:47;96623.13;;;13.43;49.24
42847;BME280;75159;49.916;14.536;2024-03-22T16:42:07;96617.97;;;13.16;49.31
42847;BME280;75159;49.916;14.536;2024-03-22T16:52:27;96611.28;;;13.14;49.50
42847;BME280;75159;49.916;14.536;2024-03-22T17:02:51;96615.00;;;13.03;49.43
42847;BME280;75159;49.916;14.536;2024-03-22T17:13:11;96611.34;;;12.87;49.43
42847;BME280;75159;49.916;14.536;2024-03-22T17:23:31;96599.91;;;12.80;49.36
42847;BME280;75159;49.916;14.536;2024-03-22T17:33:51;96593.03;;;12.79;50.47
42847;BME280;75159;49.916;14.536;2024-03-22T17:44:11;96596.91;;;12.75;49.73
42847;BME280;75159;49.916;14.536;2024-03-22T17:54:31;96599.72;;;12.73;50.16
42847;BME280;75159;49.916;14.536;2024-03-22T18:04:51;96590.72;;;12.76;50.06
42847;BME280;75159;49.916;14.536;2024-03-22T18:15:11;96588.44;;;12.81;50.42
42847;BME280;75159;49.916;14.536;2024-03-22T18:25:31;96572.56;;;12.74;50.40
42847;BME280;75159;49.916;14.536;2024-03-22T18:35:51;96572.09;;;12.79;50.64
42847;BME280;75159;49.916;14.536;2024-03-22T18:46:11;96567.03;;;12.77;50.95
42847;BME280;75159;49.916;14.536;2024-03-22T18:56:30;96539.53;;;12.73;51.08
42847;BME280;75159;49.916;14.536;2024-03-22T19:06:51;96532.31;;;12.67;51.40
42847;BME280;75159;49.916;14.536;2024-03-22T19:17:11;96525.78;;;12.71;51.36
42847;BME280;75159;49.916;14.536;2024-03-22T19:27:30;96502.41;;;12.70;51.71
42847;BME280;75159;49.916;14.536;2024-03-22T19:37:50;96502.56;;;12.68;51.59
42847;BME280;75159;49.916;14.536;2024-03-22T19:48:10;96493.25;;;12.74;52.04
42847;BME280;75159;49.916;14.536;2024-03-22T19:58:30;96479.97;;;12.67;51.99
42847;BME280;75159;49.916;14.536;2024-03-22T20:08:50;96469.81;;;12.64;52.40
42847;BME280;75159;49.916;14.536;2024-03-22T20:19:10;96468.00;;;12.56;52.61
42847;BME280;75159;49.916;14.536;2024-03-22T20:29:30;96457.72;;;12.46;52.88
